sensor_id;sensor_type;location;lat;lon;timestamp;pressure;altitude;pressure_sealevel;temperature;humidity
72896;BME280;61036;53.224;6.554;2023-11-21T00:00:18;100475.34;;;8.94;100.00
72896;BME280;61036;53.224;6.554;2023-11-21T00:02:44;100478.53;;;8.99;100.00
72896;BME280;61036;53.224;6.554;2023-11-21T00:05:12;100483.53;;;8.92;100.00
72896;BME280;61036;53.224;6.554;2023-11-21T00:07:40;100479.44;;;8.87;100.00
72896;BME280;61036;53.224;6.554;2023-11-21T00:10:07;100483.88;;;8.88;100.00
72896;BME280;61036;53.224;6.554;2023-11-21T00:12:34;100488.22;;;9.02;100.00
72896;BME280;61036;53.224;6.554;2023-11-21T00:15:00;100481.22;;;8.99;100.00
72896;BME280;61036;53.224;6.554;2023-11-21T00:17:27;100485.53;;;9.02;100.00
72896;BME280;61036;53.224;6.554;2023-11-21T00:19:52;100483.69;;;9.02;100.00
72896;BME280;61036;53.224;6.554;2023-11-21T00:22:18;100481.34;;;8.98;100.00
72896;BME280;61036;53.224;6.554;2023-11-21T00:24:45;100483.06;;;8.99;100.00
72896;BME280;61036;53.224;6.554;2023-11-21T00:27:11;100487.50;;;9.00;100.00
72896;BME280;61036;53.224;6.554;2023-11-21T00:29:36;100482.13;;;9.00;100.00
72896;BME280;61036;53.224;6.554;2023-11-21T00:32:02;100479.19;;;9.03;100.00
72896;BME280;61036;53.224;6.554;2023-11-21T00:34:28;100483.88;;;9.12;100.00
72896;BME280;61036;53.224;6.554;2023-11-21T00:36:53;100484.44;;;9.04;100.00
72896;BME280;61036;53.224;6.554;2023-11-21T00:39:20;100485.19;;;9.06;100.00
72896;BME280;61036;53.224;6.554;2023-11-21T00:41:45;100488.13;;;9.03;100.00
72896;BME280;61036;53.224;6.554;2023-11-21T00:44:11;100483.41;;;8.94;100.00
72896;BME280;61036;53.224;6.554;2023-11-21T00:46:36;100490.09;;;8.88;100.00
72896;BME280;61036;53.224;6.554;2023-11-21T00:49:02;100493.56;;;8.90;100.00
72896;BME280;61036;53.224;6.554;2023-11-21T00:51:30;100497.19;;;8.89;100.00
72896;BME280;61036;53.224;6.554;2023-11-21T00:53:55;100500.41;;;8.95;100.00
72896;BME280;61036;53.224;6.554;2023-11-21T00:56:21;100513.94;;;8.93;100.00
72896;BME280;61036;53.224;6.554;2023-11-21T00:58:47;100518.03;;;8.99;100.00
72896;BME280;61036;53.224;6.554;2023-11-21T01:01:15;100510.94;;;8.98;100.00
72896;BME280;61036;53.224;6.554;2023-11-21T01:03:42;100517.94;;;8.87;100.00
72896;BME280;61036;53.224;6.554;2023-11-21T01:06:07;100520.53;;;8.89;100.00
72896;BME280;61036;53.224;6.554;2023-11-21T01:08:34;100526.13;;;8.86;100.00
72896;BME280;61036;53.224;6.554;2023-11-21T01:11:01;100523.31;;;8.87;100.00
72896;BME280;61036;53.224;6.554;2023-11-21T01:13:27;100527.00;;;8.86;100.00
72896;BME280;61036;53.224;6.554;2023-11-21T01:15:53;100527.53;;;8.91;100.00
72896;BME280;61036;53.224;6.554;2023-11-21T01:18:19;100535.47;;;8.93;100.00
72896;BME280;61036;53.224;6.554;2023-11-21T01:20:44;100537.44;;;8.91;100.00
72896;BME280;61036;53.224;6.554;2023-11-21T01:23:15;100543.75;;;9.03;100.00
72896;BME280;61036;53.224;6.554;2023-11-21T01:25:40;100549.66;;;8.95;100.00
72896;BME280;61036;53.224;6.554;2023-11-21T01:28:06;100554.06;;;8.96;100.00
72896;BME280;61036;53.224;6.554;2023-11-21T01:30:32;100563.88;;;8.97;100.00
72896;BME280;61036;53.224;6.554;2023-11-21T01:32:58;100565.94;;;8.93;100.00
72896;BME280;61036;53.224;6.554;2023-11-21T01:35:24;100574.31;;;8.89;100.00
72896;BME280;61036;53.224;6.554;2023-11-21T01:37:50;100576.25;;;8.87;100.00
72896;BME280;61036;53.224;6.554;2023-11-21T01:40:16;100574.22;;;8.90;100.00
72896;BME280;61036;53.224;6.554;2023-11-21T01:42:42;100582.06;;;8.93;100.00
72896;BME280;61036;53.224;6.554;2023-11-21T01:45:12;100586.47;;;8.95;100.00
72896;BME280;61036;53.224;6.554;2023-11-21T01:47:38;100582.94;;;8.94;100.00
72896;BME280;61036;53.224;6.554;2023-11-21T01:50:07;100586.25;;;8.98;100.00
72896;BME280;61036;53.224;6.554;2023-11-21T01:52:38;100588.09;;;8.97;100.00
72896;BME280;61036;53.224;6.554;2023-11-21T01:55:06;100593.69;;;8.94;100.00
72896;BME280;61036;53.224;6.554;2023-11-21T01:57:33;100596.81;;;8.88;100.00
72896;BME280;61036;53.224;6.554;2023-11-21T02:00:02;100600.91;;;8.93;100.00
72896;BME280;61036;53.224;6.554;2023-11-21T02:02:47;100604.84;;;9.01;100.00
72896;BME280;61036;53.224;6.554;2023-11-21T02:05:17;100608.56;;;9.11;100.00
72896;BME280;61036;53.224;6.554;2023-11-21T02:07:47;100608.34;;;9.14;100.00
72896;BME280;61036;53.224;6.554;2023-11-21T02:10:17;100614.59;;;9.14;100.00
72896;BME280;61036;53.224;6.554;2023-11-21T02:12:48;100622.03;;;9.24;100.00
72896;BME280;61036;53.224;6.554;2023-11-21T02:15:16;100621.25;;;9.22;100.00
72896;BME280;61036;53.224;6.554;2023-11-21T02:17:49;100628.47;;;9.21;100.00
72896;BME280;61036;53.224;6.554;2023-11-21T02:20:22;100637.94;;;9.14;100.00
72896;BME280;61036;53.224;6.554;2023-11-21T02:22:54;100647.44;;;9.07;100.00
72896;BME280;61036;53.224;6.554;2023-11-21T02:25:27;100639.38;;;9.07;100.00
72896;BME280;61036;53.224;6.554;2023-11-21T02:27:54;100646.03;;;9.14;100.00
72896;BME280;61036;53.224;6.554;2023-11-21T02:30:21;100657.56;;;9.03;100.00
72896;BME280;61036;53.224;6.554;2023-11-21T02:32:48;100665.81;;;9.13;100.00
72896;BME280;61036;53.224;6.554;2023-11-21T02:35:14;100664.44;;;9.07;100.00
72896;BME280;61036;53.224;6.554;2023-11-21T02:37:41;100667.56;;;9.01;100.00
72896;BME280;61036;53.224;6.554;2023-11-21T02:40:10;100669.59;;;9.10;100.00
72896;BME280;61036;53.224;6.554;2023-11-21T02:42:38;100668.31;;;9.16;100.00
72896;BME280;61036;53.224;6.554;2023-11-21T02:45:06;100662.81;;;9.05;100.00
72896;BME280;61036;53.224;6.554;2023-11-21T02:47:31;100660.66;;;9.10;100.00
72896;BME280;61036;53.224;6.554;2023-11-21T02:49:57;100656.28;;;9.09;100.00
72896;BME280;61036;53.224;6.554;2023-11-21T02:52:22;100662.28;;;9.12;100.00
72896;BME280;61036;53.224;6.554;2023-11-21T02:54:49;100662.28;;;9.12;100.00
72896;BME280;61036;53.224;6.554;2023-11-21T02:57:14;100671.00;;;9.16;100.00
72896;BME280;61036;53.224;6.554;2023-11-21T02:59:40;100663.69;;;9.18;100.00
72896;BME280;61036;53.224;6.554;2023-11-21T03:02:05;100675.72;;;9.25;100.00
72896;BME280;61036;53.224;6.554;2023-11-21T03:04:34;100669.25;;;9.28;100.00
72896;BME280;61036;53.224;6.554;2023-11-21T03:07:00;100679.38;;;9.24;100.00
72896;BME280;61036;53.224;6.554;2023-11-21T03:09:26;100677.53;;;9.25;100.00
72896;BME280;61036;53.224;6.554;2023-11-21T03:11:54;100684.41;;;9.29;100.00
72896;BME280;61036;53.224;6.554;2023-11-21T03:14:20;100690.47;;;9.07;100.00
72896;BME280;61036;53.224;6.554;2023-11-21T03:16:46;100693.59;;;9.13;100.00
72896;BME280;61036;53.224;6.554;2023-11-21T03:19:11;100702.31;;;9.04;100.00
72896;BME280;61036;53.224;6.554;2023-11-21T03:21:37;100701.25;;;8.94;100.00
72896;BME280;61036;53.224;6.554;2023-11-21T03:24:03;100702.22;;;9.06;100.00
72896;BME280;61036;53.224;6.554;2023-11-21T03:26:28;100707.59;;;9.06;100.00
72896;BME280;61036;53.224;6.554;2023-11-21T03:28:55;100703.38;;;9.02;100.00
72896;BME280;61036;53.224;6.554;2023-11-21T03:31:22;100706.41;;;8.97;100.00
72896;BME280;61036;53.224;6.554;2023-11-21T03:33:47;100707.56;;;8.93;100.00
72896;BME280;61036;53.224;6.554;2023-11-21T03:36:13;100712.09;;;8.92;100.00
72896;BME280;61036;53.224;6.554;2023-11-21T03:38:40;100712.44;;;8.88;100.00
72896;BME280;61036;53.224;6.554;2023-11-21T03:41:07;100702.19;;;8.93;100.00
72896;BME280;61036;53.224;6.554;2023-11-21T03:43:36;100712.09;;;9.05;100.00
72896;BME280;61036;53.224;6.554;2023-11-21T03:46:02;100722.63;;;9.08;100.00
72896;BME280;61036;53.224;6.554;2023-11-21T03:48:27;100720.84;;;9.09;100.00
72896;BME280;61036;53.224;6.554;2023-11-21T03:50:53;100718.13;;;9.09;100.00
72896;BME280;61036;53.224;6.554;2023-11-21T03:53:18;100730.41;;;9.00;100.00
72896;BME280;61036;53.224;6.554;2023-11-21T03:55:44;100730.63;;;8.97;100.00
72896;BME280;61036;53.224;6.554;2023-11-21T03:58:10;100727.81;;;8.99;100.00
72896;BME280;61036;53.224;6.554;2023-11-21T04:00:36;100745.44;;;8.90;100.00
72896;BME280;61036;53.224;6.554;2023-11-21T04:03:01;100746.00;;;8.95;100.00
72896;BME280;61036;53.224;6.554;2023-11-21T04:05:27;100747.94;;;9.06;100.00
72896;BME280;61036;53.224;6.554;2023-11-21T04:07:53;100755.25;;;8.91;100.00
72896;BME280;61036;53.224;6.554;2023-11-21T04:10:19;100767.94;;;8.89;100.00
72896;BME280;61036;53.224;6.554;2023-11-21T04:12:44;100771.28;;;8.92;100.00
72896;BME280;61036;53.224;6.554;2023-11-21T04:15:10;100779.56;;;9.02;100.00
72896;BME280;61036;53.224;6.554;2023-11-21T04:17:36;100791.38;;;8.87;100.00
72896;BME280;61036;53.224;6.554;2023-11-21T04:20:03;100785.69;;;8.79;100.00
72896;BME280;61036;53.224;6.554;2023-11-21T04:22:33;100785.25;;;8.85;100.00
72896;BME280;61036;53.224;6.554;2023-11-21T04:24:59;100792.00;;;8.78;100.00
72896;BME280;61036;53.224;6.554;2023-11-21T04:27:24;100798.72;;;8.85;100.00
72896;BME280;61036;53.224;6.554;2023-11-21T04:29:50;100810.63;;;8.81;100.00
72896;BME280;61036;53.224;6.554;2023-11-21T04:32:15;100821.56;;;8.78;100.00
72896;BME280;61036;53.224;6.554;2023-11-21T04:34:41;100824.81;;;8.83;100.00
72896;BME280;61036;53.224;6.554;2023-11-21T04:37:06;100826.97;;;8.78;100.00
72896;BME280;61036;53.224;6.554;2023-11-21T04:39:32;100835.66;;;8.81;100.00
72896;BME280;61036;53.224;6.554;2023-11-21T04:41:57;100840.41;;;8.78;100.00
72896;BME280;61036;53.224;6.554;2023-11-21T04:44:23;100843.50;;;8.72;100.00
72896;BME280;61036;53.224;6.554;2023-11-21T04:46:48;100854.41;;;8.83;100.00
72896;BME280;61036;53.224;6.554;2023-11-21T04:49:14;100858.94;;;8.82;100.00
72896;BME280;61036;53.224;6.554;2023-11-21T04:51:40;100864.19;;;8.84;100.00
72896;BME280;61036;53.224;6.554;2023-11-21T04:54:05;100873.09;;;8.84;100.00
72896;BME280;61036;53.224;6.554;2023-11-21T04:56:31;100870.53;;;8.83;100.00
72896;BME280;61036;53.224;6.554;2023-11-21T04:58:57;100881.94;;;8.86;100.00
72896;BME280;61036;53.224;6.554;2023-11-21T05:01:22;100875.75;;;8.72;100.00
72896;BME280;61036;53.224;6.554;2023-11-21T05:03:48;100892.06;;;8.83;100.00
72896;BME280;61036;53.224;6.554;2023-11-21T05:06:14;100890.63;;;8.77;100.00
72896;BME280;61036;53.224;6.554;2023-11-21T05:08:40;100898.53;;;8.66;100.00
72896;BME280;61036;53.224;6.554;2023-11-21T05:11:06;100906.41;;;8.69;100.00
72896;BME280;61036;53.224;6.554;2023-11-21T05:13:36;100911.56;;;8.72;100.00
72896;BME280;61036;53.224;6.554;2023-11-21T05:16:02;100913.13;;;8.76;100.00
72896;BME280;61036;53.224;6.554;2023-11-21T05:18:29;100914.19;;;8.74;100.00
72896;BME280;61036;53.224;6.554;2023-11-21T05:20:55;100920.53;;;8.73;100.00
72896;BME280;61036;53.224;6.554;2023-11-21T05:23:21;100928.31;;;8.63;100.00
72896;BME280;61036;53.224;6.554;2023-11-21T05:25:46;100926.59;;;8.62;100.00
72896;BME280;61036;53.224;6.554;2023-11-21T05:28:12;100933.78;;;8.76;100.00
72896;BME280;61036;53.224;6.554;2023-11-21T05:30:38;100935.78;;;8.72;100.00
72896;BME280;61036;53.224;6.554;2023-11-21T05:33:06;100940.69;;;8.65;100.00
72896;BME280;61036;53.224;6.554;2023-11-21T05:35:32;100948.97;;;8.62;100.00
72896;BME280;61036;53.224;6.554;2023-11-21T05:37:57;100951.16;;;8.70;100.00
72896;BME280;61036;53.224;6.554;2023-11-21T05:40:23;100952.47;;;8.77;100.00
72896;BME280;61036;53.224;6.554;2023-11-21T05:42:48;100964.75;;;8.81;100.00
72896;BME280;61036;53.224;6.554;2023-11-21T05:45:14;100963.22;;;8.77;100.00
72896;BME280;61036;53.224;6.554;2023-11-21T05:47:42;100963.16;;;8.79;100.00
72896;BME280;61036;53.224;6.554;2023-11-21T05:50:09;100966.56;;;8.81;100.00
72896;BME280;61036;53.224;6.554;2023-11-21T05:52:41;100970.44;;;8.77;100.00
72896;BME280;61036;53.224;6.554;2023-11-21T05:55:07;100978.50;;;8.77;100.00
72896;BME280;61036;53.224;6.554;2023-11-21T05:57:36;100982.88;;;8.92;100.00
72896;BME280;61036;53.224;6.554;2023-11-21T06:00:09;100990.66;;;8.97;100.00
72896;BME280;61036;53.224;6.554;2023-11-21T06:02:45;100996.91;;;8.97;100.00
72896;BME280;61036;53.224;6.554;2023-11-21T06:05:11;101012.09;;;8.84;100.00
72896;BME280;61036;53.224;6.554;2023-11-21T06:07:37;100996.69;;;9.00;100.00
72896;BME280;61036;53.224;6.554;2023-11-21T06:10:04;101004.50;;;8.90;100.00
72896;BME280;61036;53.224;6.554;2023-11-21T06:12:38;101019.91;;;8.60;100.00
72896;BME280;61036;53.224;6.554;2023-11-21T06:15:05;101023.50;;;8.46;100.00
72896;BME280;61036;53.224;6.554;2023-11-21T06:17:36;101026.84;;;8.50;100.00
72896;BME280;61036;53.224;6.554;2023-11-21T06:20:06;101034.13;;;8.47;100.00
72896;BME280;61036;53.224;6.554;2023-11-21T06:22:38;101036.47;;;8.39;100.00
72896;BME280;61036;53.224;6.554;2023-11-21T06:25:04;101034.78;;;8.37;100.00
72896;BME280;61036;53.224;6.554;2023-11-21T06:27:32;101042.78;;;8.38;100.00
72896;BME280;61036;53.224;6.554;2023-11-21T06:29:59;101048.22;;;8.37;100.00
72896;BME280;61036;53.224;6.554;2023-11-21T06:32:25;101059.16;;;8.34;100.00
72896;BME280;61036;53.224;6.554;2023-11-21T06:34:51;101053.88;;;8.32;100.00
72896;BME280;61036;53.224;6.554;2023-11-21T06:37:20;101061.84;;;8.34;100.00
72896;BME280;61036;53.224;6.554;2023-11-21T06:39:48;101068.50;;;8.42;100.00
72896;BME280;61036;53.224;6.554;2023-11-21T06:42:14;101081.25;;;8.39;100.00
72896;BME280;61036;53.224;6.554;2023-11-21T06:44:40;101080.13;;;8.43;100.00
72896;BME280;61036;53.224;6.554;2023-11-21T06:47:07;101090.69;;;8.46;100.00
72896;BME280;61036;53.224;6.554;2023-11-21T06:49:32;101090.53;;;8.33;100.00
72896;BME280;61036;53.224;6.554;2023-11-21T06:51:58;101088.41;;;8.24;100.00
72896;BME280;61036;53.224;6.554;2023-11-21T06:54:24;101088.78;;;8.18;100.00
72896;BME280;61036;53.224;6.554;2023-11-21T06:56:50;101098.47;;;8.20;100.00
72896;BME280;61036;53.224;6.554;2023-11-21T06:59:15;101107.31;;;8.22;100.00
72896;BME280;61036;53.224;6.554;2023-11-21T07:01:41;101107.59;;;8.32;100.00
72896;BME280;61036;53.224;6.554;2023-11-21T07:04:07;101122.28;;;8.27;100.00
72896;BME280;61036;53.224;6.554;2023-11-21T07:06:35;101126.91;;;8.24;100.00
72896;BME280;61036;53.224;6.554;2023-11-21T07:09:00;101124.41;;;8.21;100.00
72896;BME280;61036;53.224;6.554;2023-11-21T07:11:27;101132.47;;;8.21;100.00
72896;BME280;61036;53.224;6.554;2023-11-21T07:13:52;101126.31;;;8.19;100.00
72896;BME280;61036;53.224;6.554;2023-11-21T07:16:18;101140.66;;;8.04;100.00
72896;BME280;61036;53.224;6.554;2023-11-21T07:18:44;101146.03;;;8.04;100.00
72896;BME280;61036;53.224;6.554;2023-11-21T07:21:10;101146.47;;;8.27;100.00
72896;BME280;61036;53.224;6.554;2023-11-21T07:23:38;101151.47;;;8.33;100.00
72896;BME280;61036;53.224;6.554;2023-11-21T07:26:03;101157.50;;;8.36;100.00
72896;BME280;61036;53.224;6.554;2023-11-21T07:28:34;101164.81;;;8.34;100.00
72896;BME280;61036;53.224;6.554;2023-11-21T07:31:00;101161.97;;;8.07;100.00
72896;BME280;61036;53.224;6.554;2023-11-21T07:33:25;101171.13;;;8.03;100.00
72896;BME280;61036;53.224;6.554;2023-11-21T07:35:51;101178.50;;;8.15;100.00
72896;BME280;61036;53.224;6.554;2023-11-21T07:38:17;101177.59;;;8.00;100.00
72896;BME280;61036;53.224;6.554;2023-11-21T07:40:43;101181.03;;;8.02;100.00
72896;BME280;61036;53.224;6.554;2023-11-21T07:43:08;101187.44;;;8.00;100.00
72896;BME280;61036;53.224;6.554;2023-11-21T07:45:34;101191.50;;;8.07;100.00
72896;BME280;61036;53.224;6.554;2023-11-21T07:47:59;101193.78;;;7.99;100.00
72896;BME280;61036;53.224;6.554;2023-11-21T07:50:28;101198.34;;;8.13;100.00
72896;BME280;61036;53.224;6.554;2023-11-21T07:52:54;101203.19;;;8.06;100.00
72896;BME280;61036;53.224;6.554;2023-11-21T07:55:19;101208.94;;;8.30;100.00
72896;BME280;61036;53.224;6.554;2023-11-21T07:57:45;101211.78;;;8.13;100.00
72896;BME280;61036;53.224;6.554;2023-11-21T08:00:11;101227.97;;;8.11;100.00
72896;BME280;61036;53.224;6.554;2023-11-21T08:02:40;101228.66;;;8.15;100.00
72896;BME280;61036;53.224;6.554;2023-11-21T08:05:12;101232.97;;;8.17;100.00
72896;BME280;61036;53.224;6.554;2023-11-21T08:07:38;101232.75;;;8.36;100.00
72896;BME280;61036;53.224;6.554;2023-11-21T08:10:04;101243.72;;;8.17;100.00
72896;BME280;61036;53.224;6.554;2023-11-21T08:12:32;101250.41;;;8.10;100.00
72896;BME280;61036;53.224;6.554;2023-11-21T08:14:57;101266.69;;;8.23;100.00
72896;BME280;61036;53.224;6.554;2023-11-21T08:17:23;101267.47;;;8.09;100.00
72896;BME280;61036;53.224;6.554;2023-11-21T08:19:49;101269.47;;;8.06;100.00
72896;BME280;61036;53.224;6.554;2023-11-21T08:22:16;101263.03;;;8.24;100.00
72896;BME280;61036;53.224;6.554;2023-11-21T08:24:46;101269.72;;;8.17;100.00
72896;BME280;61036;53.224;6.554;2023-11-21T08:27:12;101269.56;;;8.20;100.00
72896;BME280;61036;53.224;6.554;2023-11-21T08:29:41;101272.53;;;8.15;100.00
72896;BME280;61036;53.224;6.554;2023-11-21T08:32:07;101276.25;;;8.13;100.00
72896;BME280;61036;53.224;6.554;2023-11-21T08:34:32;101283.91;;;8.35;100.00
72896;BME280;61036;53.224;6.554;2023-11-21T08:36:58;101291.56;;;8.42;100.00
72896;BME280;61036;53.224;6.554;2023-11-21T08:39:24;101287.94;;;7.96;100.00
72896;BME280;61036;53.224;6.554;2023-11-21T08:41:50;101297.28;;;8.05;100.00
72896;BME280;61036;53.224;6.554;2023-11-21T08:44:17;101299.38;;;7.99;100.00
72896;BME280;61036;53.224;6.554;2023-11-21T08:46:45;101303.38;;;7.92;100.00
72896;BME280;61036;53.224;6.554;2023-11-21T08:49:12;101299.47;;;8.14;100.00
72896;BME280;61036;53.224;6.554;2023-11-21T08:51:38;101306.47;;;8.16;100.00
72896;BME280;61036;53.224;6.554;2023-11-21T08:54:04;101317.22;;;8.16;100.00
72896;BME280;61036;53.224;6.554;2023-11-21T08:56:33;101321.75;;;8.16;100.00
72896;BME280;61036;53.224;6.554;2023-11-21T08:58:59;101339.56;;;8.33;100.00
72896;BME280;61036;53.224;6.554;2023-11-21T09:01:29;101341.81;;;8.09;100.00
72896;BME280;61036;53.224;6.554;2023-11-21T09:03:57;101344.69;;;7.90;100.00
72896;BME280;61036;53.224;6.554;2023-11-21T09:06:23;101346.00;;;7.83;100.00
72896;BME280;61036;53.224;6.554;2023-11-21T09:08:49;101348.75;;;7.97;100.00
72896;BME280;61036;53.224;6.554;2023-11-21T09:11:18;101362.56;;;8.07;100.00
72896;BME280;61036;53.224;6.554;2023-11-21T09:13:44;101355.13;;;7.78;100.00
72896;BME280;61036;53.224;6.554;2023-11-21T09:16:09;101372.78;;;7.67;100.00
72896;BME280;61036;53.224;6.554;2023-11-21T09:18:36;101371.34;;;7.77;100.00
72896;BME280;61036;53.224;6.554;2023-11-21T09:21:01;101377.69;;;7.92;100.00
72896;BME280;61036;53.224;6.554;2023-11-21T09:23:27;101382.56;;;8.01;100.00
72896;BME280;61036;53.224;6.554;2023-11-21T09:25:52;101391.19;;;7.90;100.00
72896;BME280;61036;53.224;6.554;2023-11-21T09:28:22;101394.69;;;7.92;100.00
72896;BME280;61036;53.224;6.554;2023-11-21T09:30:47;101399.34;;;7.89;100.00
72896;BME280;61036;53.224;6.554;2023-11-21T09:33:15;101408.56;;;8.00;100.00
72896;BME280;61036;53.224;6.554;2023-11-21T09:35:41;101406.91;;;8.14;100.00
72896;BME280;61036;53.224;6.554;2023-11-21T09:38:09;101416.28;;;8.22;100.00
72896;BME280;61036;53.224;6.554;2023-11-21T09:40:37;101421.53;;;7.92;100.00
72896;BME280;61036;53.224;6.554;2023-11-21T09:43:06;101437.13;;;7.86;100.00
72896;BME280;61036;53.224;6.554;2023-11-21T09:45:35;101440.47;;;7.73;100.00
72896;BME280;61036;53.224;6.554;2023-11-21T09:48:01;101431.78;;;7.68;100.00
72896;BME280;61036;53.224;6.554;2023-11-21T09:50:27;101445.56;;;7.78;100.00
72896;BME280;61036;53.224;6.554;2023-11-21T09:55:26;101458.97;;;7.95;100.00
72896;BME280;61036;53.224;6.554;2023-11-21T09:57:56;101473.41;;;7.93;100.00
72896;BME280;61036;53.224;6.554;2023-11-21T10:00:22;101470.41;;;8.15;100.00
72896;BME280;61036;53.224;6.554;2023-11-21T10:02:53;101488.00;;;8.05;100.00
72896;BME280;61036;53.224;6.554;2023-11-21T10:05:19;101484.78;;;7.98;100.00
72896;BME280;61036;53.224;6.554;2023-11-21T10:07:49;101496.59;;;8.11;100.00
72896;BME280;61036;53.224;6.554;2023-11-21T10:10:17;101503.41;;;8.01;100.00
72896;BME280;61036;53.224;6.554;2023-11-21T10:12:48;101508.03;;;8.15;100.00
72896;BME280;61036;53.224;6.554;2023-11-21T10:15:14;101534.81;;;7.83;100.00
72896;BME280;61036;53.224;6.554;2023-11-21T10:17:44;101527.44;;;8.04;100.00
72896;BME280;61036;53.224;6.554;2023-11-21T10:20:14;101529.63;;;8.13;100.00
72896;BME280;61036;53.224;6.554;2023-11-21T10:22:40;101540.06;;;8.02;100.00
72896;BME280;61036;53.224;6.554;2023-11-21T10:25:10;101552.25;;;7.92;100.00
72896;BME280;61036;53.224;6.554;2023-11-21T10:27:37;101553.81;;;7.96;100.00
72896;BME280;61036;53.224;6.554;2023-11-21T10:30:08;101558.59;;;8.24;100.00
72896;BME280;61036;53.224;6.554;2023-11-21T10:32:40;101576.25;;;8.12;100.00
72896;BME280;61036;53.224;6.554;2023-11-21T10:35:09;101570.22;;;8.24;100.00
72896;BME280;61036;53.224;6.554;2023-11-21T10:37:41;101587.06;;;8.11;100.00
72896;BME280;61036;53.224;6.554;2023-11-21T10:40:09;101591.72;;;8.24;100.00
72896;BME280;61036;53.224;6.554;2023-11-21T10:42:38;101620.75;;;8.00;100.00
72896;BME280;61036;53.224;6.554;2023-11-21T10:45:08;101626.38;;;8.29;100.00
72896;BME280;61036;53.224;6.554;2023-11-21T10:47:43;101626.19;;;7.99;100.00
72896;BME280;61036;53.224;6.554;2023-11-21T10:50:09;101629.56;;;8.02;100.00
72896;BME280;61036;53.224;6.554;2023-11-21T10:52:40;101635.41;;;8.11;100.00
72896;BME280;61036;53.224;6.554;2023-11-21T10:55:18;101649.34;;;8.19;100.00
72896;BME280;61036;53.224;6.554;2023-11-21T10:57:52;101650.03;;;8.22;100.00
72896;BME280;61036;53.224;6.554;2023-11-21T11:00:19;101656.53;;;8.01;100.00
72896;BME280;61036;53.224;6.554;2023-11-21T11:02:52;101663.63;;;8.19;100.00
72896;BME280;61036;53.224;6.554;2023-11-21T11:05:20;101664.78;;;7.96;100.00
72896;BME280;61036;53.224;6.554;2023-11-21T11:07:51;101666.72;;;7.94;100.00
72896;BME280;61036;53.224;6.554;2023-11-21T11:10:26;101668.59;;;7.92;100.00
72896;BME280;61036;53.224;6.554;2023-11-21T11:12:53;101679.19;;;7.95;100.00
72896;BME280;61036;53.224;6.554;2023-11-21T11:15:21;101686.63;;;8.25;100.00
72896;BME280;61036;53.224;6.554;2023-11-21T11:17:48;101691.53;;;8.34;100.00
72896;BME280;61036;53.224;6.554;2023-11-21T11:20:16;101693.94;;;8.40;100.00
72896;BME280;61036;53.224;6.554;2023-11-21T11:25:35;101705.25;;;8.11;100.00
72896;BME280;61036;53.224;6.554;2023-11-21T11:28:22;101718.34;;;7.99;100.00
72896;BME280;61036;53.224;6.554;2023-11-21T11:31:05;101722.47;;;8.43;100.00
72896;BME280;61036;53.224;6.554;2023-11-21T11:33:53;101721.53;;;8.77;100.00
72896;BME280;61036;53.224;6.554;2023-11-21T11:36:40;101726.94;;;8.60;100.00
72896;BME280;61036;53.224;6.554;2023-11-21T11:42:02;101750.81;;;8.31;100.00
72896;BME280;61036;53.224;6.554;2023-11-21T11:47:16;101745.84;;;8.58;100.00
72896;BME280;61036;53.224;6.554;2023-11-21T11:50:12;101752.47;;;8.68;100.00
72896;BME280;61036;53.224;6.554;2023-11-21T11:52:51;101746.94;;;8.72;100.00
72896;BME280;61036;53.224;6.554;2023-11-21T11:55:19;101757.06;;;9.17;100.00
72896;BME280;61036;53.224;6.554;2023-11-21T11:57:53;101773.81;;;8.54;100.00
72896;BME280;61036;53.224;6.554;2023-11-21T12:03:00;101765.53;;;8.76;100.00
72896;BME280;61036;53.224;6.554;2023-11-21T12:05:29;101780.22;;;8.86;100.00
72896;BME280;61036;53.224;6.554;2023-11-21T12:08:00;101800.09;;;8.49;100.00
72896;BME280;61036;53.224;6.554;2023-11-21T12:10:28;101801.78;;;8.52;100.00
72896;BME280;61036;53.224;6.554;2023-11-21T12:12:59;101806.34;;;8.50;100.00
72896;BME280;61036;53.224;6.554;2023-11-21T12:15:25;101812.41;;;8.17;100.00
72896;BME280;61036;53.224;6.554;2023-11-21T12:17:52;101816.06;;;8.33;100.00
72896;BME280;61036;53.224;6.554;2023-11-21T12:20:23;101813.94;;;8.76;100.00
72896;BME280;61036;53.224;6.554;2023-11-21T12:22:52;101818.78;;;8.69;100.00
72896;BME280;61036;53.224;6.554;2023-11-21T12:25:23;101814.66;;;8.62;100.00
72896;BME280;61036;53.224;6.554;2023-11-21T12:27:51;101819.06;;;8.81;100.00
72896;BME280;61036;53.224;6.554;2023-11-21T12:30:22;101817.41;;;8.43;100.00
72896;BME280;61036;53.224;6.554;2023-11-21T12:32:50;101810.06;;;8.82;100.00
72896;BME280;61036;53.224;6.554;2023-11-21T12:35:17;101818.28;;;8.61;100.00
72896;BME280;61036;53.224;6.554;2023-11-21T12:37:45;101814.75;;;8.61;100.00
72896;BME280;61036;53.224;6.554;2023-11-21T12:40:12;101817.97;;;8.67;100.00
72896;BME280;61036;53.224;6.554;2023-11-21T12:43:06;101831.03;;;8.58;100.00
72896;BME280;61036;53.224;6.554;2023-11-21T12:45:33;101832.13;;;8.35;100.00
72896;BME280;61036;53.224;6.554;2023-11-21T12:48:04;101837.75;;;8.49;100.00
72896;BME280;61036;53.224;6.554;2023-11-21T12:50:33;101833.16;;;8.68;100.00
72896;BME280;61036;53.224;6.554;2023-11-21T12:53:06;101838.38;;;8.72;100.00
72896;BME280;61036;53.224;6.554;2023-11-21T12:55:34;101835.56;;;8.38;100.00
72896;BME280;61036;53.224;6.554;2023-11-21T12:58:04;101838.69;;;8.29;100.00
72896;BME280;61036;53.224;6.554;2023-11-21T13:00:49;101845.09;;;8.45;100.00
72896;BME280;61036;53.224;6.554;2023-11-21T13:03:16;101840.94;;;8.38;100.00
72896;BME280;61036;53.224;6.554;2023-11-21T13:05:44;101839.72;;;8.45;100.00